createdAt,value
2022-12-31T11:25:38.722Z,1.80
2022-12-31T11:28:50.210Z,1.65
2022-12-31T11:32:00.815Z,1.30
2022-12-31T11:34:57.351Z,1.70
2022-12-31T11:37:47.789Z,2.00
2022-12-31T11:40:44.333Z,2.03
2022-12-31T11:43:38.593Z,2.20
2022-12-31T11:46:44.898Z,2.75
2022-12-31T11:49:49.482Z,2.20
2022-12-31T11:52:55.334Z,10.38
2022-12-31T11:55:53.972Z,4.63
2022-12-31T11:58:46.121Z,3.30
2022-12-31T12:01:44.288Z,9.68
2022-12-31T12:04:33.632Z,2.70
2022-12-31T12:07:24.048Z,2.35
2022-12-31T12:10:22.959Z,2.40
2022-12-31T12:14:00.921Z,2.03
2022-12-31T12:17:56.984Z,2.10
2022-12-31T12:21:47.281Z,2.63
2022-12-31T12:25:38.821Z,2.40
2022-12-31T12:29:28.556Z,2.93
2022-12-31T12:33:17.685Z,3.22
2022-12-31T12:37:23.401Z,4.22
2022-12-31T12:41:20.789Z,2.25
2022-12-31T12:45:15.126Z,1.52
2022-12-31T12:49:05.559Z,1.93
2022-12-31T12:53:15.920Z,2.58
2022-12-31T12:57:15.001Z,1.50
2022-12-31T13:01:07.725Z,2.05
2022-12-31T13:05:21.708Z,2.10
2022-12-31T13:09:32.495Z,1.20
2022-12-31T13:13:28.149Z,1.52
2022-12-31T13:17:36.873Z,1.77
2022-12-31T13:21:33.483Z,1.20
2022-12-31T13:25:33.015Z,1.40
2022-12-31T13:29:21.677Z,0.37
2022-12-31T13:32:21.017Z,0.40
2022-12-31T13:36:16.325Z,0.40
2022-12-31T13:40:13.031Z,0.50
2022-12-31T13:44:05.646Z,0.95
2022-12-31T13:47:55.299Z,0.50
2022-12-31T13:50:51.711Z,0.50
2022-12-31T13:53:44.624Z,0.40
2022-12-31T13:56:37.894Z,0.50
2022-12-31T13:59:31.350Z,0.98
2022-12-31T14:02:30.264Z,1.00
2022-12-31T14:05:24.667Z,0.70
2022-12-31T14:08:12.633Z,0.60
2022-12-31T14:11:09.448Z,0.50
2022-12-31T14:14:14.622Z,1.35
2022-12-31T14:17:09.787Z,1.10
2022-12-31T14:20:08.232Z,0.50
2022-12-31T14:23:04.646Z,0.70
2022-12-31T14:25:57.766Z,0.70
2022-12-31T14:28:49.833Z,0.98
2022-12-31T14:32:09.422Z,0.50
2022-12-31T14:35:02.071Z,0.45
2022-12-31T14:37:59.597Z,0.50
2022-12-31T14:41:01.644Z,0.40
2022-12-31T14:43:59.602Z,0.47
2022-12-31T14:47:01.502Z,0.70
2022-12-31T14:50:00.516Z,1.13
2022-12-31T14:52:52.329Z,0.45
2022-12-31T14:55:41.642Z,0.30
2022-12-31T14:58:35.805Z,1.50
2022-12-31T15:01:26.094Z,0.43
2022-12-31T15:04:16.456Z,0.55
2022-12-31T15:07:12.016Z,0.77
2022-12-31T15:10:11.350Z,0.40
2022-12-31T15:13:06.263Z,0.40
2022-12-31T15:16:10.853Z,0.40
2022-12-31T15:19:31.966Z,0.60
2022-12-31T15:22:34.597Z,0.30
2022-12-31T15:25:28.504Z,0.70
2022-12-31T15:28:31.027Z,3.30
2022-12-31T15:31:21.621Z,0.90
2022-12-31T15:34:27.746Z,1.40
2022-12-31T15:37:31.075Z,0.60
2022-12-31T15:40:21.440Z,0.88
2022-12-31T15:43:14.173Z,0.57
2022-12-31T15:46:05.101Z,0.50
2022-12-31T15:49:03.682Z,0.70
2022-12-31T15:52:00.675Z,1.02
2022-12-31T15:54:51.734Z,0.88
2022-12-31T15:57:42.956Z,0.40
2022-12-31T16:00:44.546Z,0.67
2022-12-31T16:03:33.487Z,1.35
2022-12-31T16:06:22.201Z,0.63
2022-12-31T16:09:22.055Z,0.60
2022-12-31T16:12:12.607Z,0.80
2022-12-31T16:15:00.904Z,0.60
2022-12-31T16:17:59.629Z,0.82
2022-12-31T16:20:48.696Z,0.88
2022-12-31T16:23:42.207Z,1.40
2022-12-31T16:26:37.951Z,3.10
2022-12-31T16:29:26.288Z,2.00
2022-12-31T16:32:17.222Z,1.58
2022-12-31T16:35:23.524Z,1.40
2022-12-31T16:38:15.821Z,0.77
2022-12-31T16:41:18.142Z,1.10
2022-12-31T16:44:26.203Z,0.93
2022-12-31T16:47:18.975Z,1.40
2022-12-31T16:50:17.197Z,1.48
2022-12-31T16:53:07.112Z,1.02
2022-12-31T16:55:57.842Z,0.65
2022-12-31T16:58:46.576Z,0.63
2022-12-31T17:01:38.473Z,1.17
2022-12-31T17:04:27.264Z,1.25
2022-12-31T17:07:27.512Z,0.80
2022-12-31T17:10:26.812Z,2.28
2022-12-31T17:13:28.140Z,0.77
2022-12-31T17:16:18.983Z,1.58
2022-12-31T17:19:08.476Z,0.68
2022-12-31T17:21:56.407Z,0.60
2022-12-31T17:24:44.487Z,0.50
2022-12-31T17:27:33.254Z,1.50
2022-12-31T17:30:23.892Z,0.60
2022-12-31T17:36:24.730Z,0.80
2022-12-31T17:39:18.422Z,0.75
2022-12-31T17:42:06.637Z,0.87
2022-12-31T17:44:57.744Z,1.88
2022-12-31T17:53:27.072Z,1.13
2022-12-31T18:01:56.166Z,0.50
2022-12-31T18:04:44.399Z,1.50
2022-12-31T18:07:32.309Z,1.48
2022-12-31T18:10:25.196Z,0.60
2022-12-31T18:13:17.420Z,5.38
2022-12-31T18:16:05.949Z,5.57
2022-12-31T18:19:01.081Z,5.53
2022-12-31T18:21:49.199Z,5.38
2022-12-31T18:24:37.232Z,7.10
2022-12-31T18:33:06.260Z,5.40
2022-12-31T20:29:19.629Z,4.95
